Hanjin Phoenix — A8CN9 — position and weather

sailwx.info

Track history (hours):
 
Tides and Currents Weather Stations Pressure Air Temp Water Temp Dewpoint Dewpoint Depression Visibility Wind Speed Wind Dir Waves Ship Positions

Hanjin Phoenix

Last reported at 2014-Oct-02 01:23 UTC. Time now 2014-Oct-02 04:25 UTC.
Position N 40°25' E 014°14'.

Length 282.1 m; beam 32.2 m; draft 13 m.

Type: Cargo ship. MMSI: 636090671.

Date/timePositionNaut miles runAvg speedWind from/ knotsBaromVisibWave heightAir tempDewpointWater temp
2014-Oct-02 01:23N 40°25' E 014°14'910.3
2014-Oct-02 00:31N 40°22' E 014°04'1010.2
2014-Oct-01 23:34N 40°18' E 013°52'1010.3
2014-Oct-01 22:33N 40°14' E 013°39'215 7.6
2014-Sep-30 18:15N 39°03' E 009°16'1115.6
2014-Sep-30 17:33N 39°11' E 009°06'3 1.4
2014-Sep-30 15:33N 39°13' E 009°04'0 0.0
2014-Sep-30 14:25N 39°13' E 009°04'0 0.0
2014-Sep-30 13:16N 39°13' E 009°04'0 0.0
2014-Sep-30 12:28N 39°13' E 009°04'0 0.0
2014-Sep-30 09:22N 39°13' E 009°04'0 0.0
2014-Sep-30 07:07N 39°13' E 009°04'0 0.0
2014-Sep-30 06:31N 39°13' E 009°04'0 0.0
2014-Sep-30 05:31N 39°13' E 009°04'0 0.0
2014-Sep-30 04:31N 39°13' E 009°04'0 0.0
2014-Sep-30 03:31N 39°13' E 009°04'0 0.0
2014-Sep-30 02:31N 39°13' E 009°04'0 0.0
2014-Sep-30 01:31N 39°13' E 009°04'1 0.8
2014-Sep-30 00:33N 39°12' E 009°05'6 6.4
2014-Sep-29 23:33N 39°06' E 009°07'6 6.2
2014-Sep-29 22:33N 39°00' E 009°07'2 1.7
2014-Sep-29 21:33N 38°59' E 009°09'2 1.6
2014-Sep-29 20:33N 38°58' E 009°10'6 5.8
2014-Sep-29 19:33N 38°56' E 009°03'1111.4
2014-Sep-29 18:33N 38°48' E 008°54'1411.6
2014-Sep-29 17:19N 38°43' E 008°36'1512.1
2014-Sep-29 16:07N 38°39' E 008°18'282 7.6
2014-Sep-28 03:15N 37°35' E 002°30'1 1.9
2014-Sep-28 02:32N 37°35' E 002°31'2 2.0
2014-Sep-28 01:21N 37°34' E 002°34'2 2.0
2014-Sep-28 00:27N 37°33' E 002°36'2 2.1
2014-Sep-27 23:33N 37°32' E 002°38'2 2.2
2014-Sep-27 22:32N 37°31' E 002°40'2 2.4
2014-Sep-27 21:33N 37°30' E 002°43'3 2.5
2014-Sep-27 20:18N 37°29' E 002°47'3 2.5
2014-Sep-27 19:08N 37°28' E 002°50'1 2.4
2014-Sep-27 18:33N 37°27' E 002°52'2 2.4
2014-Sep-27 17:32N 37°27' E 002°55'5 2.3
2014-Sep-27 15:27N 37°27' E 003°01'  
2014-Sep-23 17:11N 36°00' W 005°12'914.1
2014-Sep-23 16:33N 35°58' W 005°23'  
Track history (hours):
 
Tides and Currents Weather Stations Pressure Air Temp Water Temp Dewpoint Dewpoint Depression Visibility Wind Speed Wind Dir Waves Ship Positions

Hanjin Phoenix

Last reported at 2014-Oct-02 01:23 UTC. Time now 2014-Oct-02 04:25 UTC.
Position N 40°25' E 014°14'.

Length 282.1 m; beam 32.2 m; draft 13 m.

Type: Cargo ship. MMSI: 636090671.

Date/timePositionNaut miles runAvg speedWind from/ knotsBaromVisibWave heightAir tempDewpointWater temp
2014-Oct-02 01:23N 40°25' E 014°14'910.3
2014-Oct-02 00:31N 40°22' E 014°04'1010.2
2014-Oct-01 23:34N 40°18' E 013°52'1010.3
2014-Oct-01 22:33N 40°14' E 013°39'215 7.6
2014-Sep-30 18:15N 39°03' E 009°16'1115.6
2014-Sep-30 17:33N 39°11' E 009°06'3 1.4
2014-Sep-30 15:33N 39°13' E 009°04'0 0.0
2014-Sep-30 14:25N 39°13' E 009°04'0 0.0
2014-Sep-30 13:16N 39°13' E 009°04'0 0.0
2014-Sep-30 12:28N 39°13' E 009°04'0 0.0
2014-Sep-30 09:22N 39°13' E 009°04'0 0.0
2014-Sep-30 07:07N 39°13' E 009°04'0 0.0
2014-Sep-30 06:31N 39°13' E 009°04'0 0.0
2014-Sep-30 05:31N 39°13' E 009°04'0 0.0
2014-Sep-30 04:31N 39°13' E 009°04'0 0.0
2014-Sep-30 03:31N 39°13' E 009°04'0 0.0
2014-Sep-30 02:31N 39°13' E 009°04'0 0.0
2014-Sep-30 01:31N 39°13' E 009°04'1 0.8
2014-Sep-30 00:33N 39°12' E 009°05'6 6.4
2014-Sep-29 23:33N 39°06' E 009°07'6 6.2
2014-Sep-29 22:33N 39°00' E 009°07'2 1.7
2014-Sep-29 21:33N 38°59' E 009°09'2 1.6
2014-Sep-29 20:33N 38°58' E 009°10'6 5.8
2014-Sep-29 19:33N 38°56' E 009°03'1111.4
2014-Sep-29 18:33N 38°48' E 008°54'1411.6
2014-Sep-29 17:19N 38°43' E 008°36'1512.1
2014-Sep-29 16:07N 38°39' E 008°18'282 7.6
2014-Sep-28 03:15N 37°35' E 002°30'1 1.9
2014-Sep-28 02:32N 37°35' E 002°31'2 2.0
2014-Sep-28 01:21N 37°34' E 002°34'2 2.0
2014-Sep-28 00:27N 37°33' E 002°36'2 2.1
2014-Sep-27 23:33N 37°32' E 002°38'2 2.2
2014-Sep-27 22:32N 37°31' E 002°40'2 2.4
2014-Sep-27 21:33N 37°30' E 002°43'3 2.5
2014-Sep-27 20:18N 37°29' E 002°47'3 2.5
2014-Sep-27 19:08N 37°28' E 002°50'1 2.4
2014-Sep-27 18:33N 37°27' E 002°52'2 2.4
2014-Sep-27 17:32N 37°27' E 002°55'5 2.3
2014-Sep-27 15:27N 37°27' E 003°01'  
2014-Sep-23 17:11N 36°00' W 005°12'914.1
2014-Sep-23 16:33N 35°58' W 005°23'  

Dump ship's entire track history